createdAt,value
2023-11-15T00:00:35.878Z,0.00
2023-11-15T00:01:35.890Z,0.00
2023-11-15T00:02:36.128Z,0.00
2023-11-15T00:03:36.002Z,1.57
2023-11-15T00:04:35.935Z,0.00
2023-11-15T00:05:36.003Z,0.00
2023-11-15T00:06:36.035Z,1.57
2023-11-15T00:07:35.980Z,0.10
2023-11-15T00:08:36.051Z,0.00
2023-11-15T00:09:36.020Z,0.00
2023-11-15T00:10:36.019Z,0.00
2023-11-15T00:11:36.063Z,0.00
2023-11-15T00:12:36.046Z,0.00
2023-11-15T00:13:36.066Z,0.00
2023-11-15T00:14:36.112Z,0.00
2023-11-15T00:15:36.129Z,1.57
2023-11-15T00:16:36.103Z,0.00
2023-11-15T00:17:36.155Z,0.00
2023-11-15T00:18:36.192Z,1.57
2023-11-15T00:19:36.150Z,0.00
2023-11-15T00:20:36.210Z,0.00
2023-11-15T00:21:36.178Z,0.00
2023-11-15T00:22:36.193Z,1.57
2023-11-15T00:23:36.242Z,0.00
2023-11-15T00:24:36.222Z,0.00
2023-11-15T00:25:36.236Z,0.00
2023-11-15T00:26:36.291Z,1.57
2023-11-15T00:27:36.270Z,0.00
2023-11-15T00:28:36.278Z,0.00
2023-11-15T00:29:36.313Z,0.00
2023-11-15T00:30:36.335Z,0.00
2023-11-15T00:31:36.323Z,0.00
2023-11-15T00:32:36.396Z,0.00
2023-11-15T00:33:36.407Z,1.57
2023-11-15T00:34:36.380Z,25.00
2023-11-15T00:35:36.566Z,0.00
2023-11-15T00:36:36.419Z,1.57
2023-11-15T00:37:36.409Z,0.00
2023-11-15T00:38:36.461Z,0.00
2023-11-15T00:39:36.459Z,1.56
2023-11-15T00:40:36.452Z,0.00
2023-11-15T00:41:36.497Z,0.00
2023-11-15T00:42:36.484Z,0.00
2023-11-15T00:43:36.511Z,0.00
2023-11-15T00:44:36.557Z,0.00
2023-11-15T00:45:36.545Z,0.00
2023-11-15T00:46:36.540Z,0.00
2023-11-15T00:47:36.618Z,0.00
2023-11-15T00:48:36.569Z,0.00
2023-11-15T00:49:36.596Z,0.00
2023-11-15T00:50:36.630Z,0.00
2023-11-15T00:51:36.612Z,0.00
2023-11-15T00:52:36.626Z,0.00
2023-11-15T00:53:36.705Z,0.00
2023-11-15T00:54:36.673Z,0.00
2023-11-15T00:55:36.677Z,0.00
2023-11-15T00:56:36.695Z,0.00
2023-11-15T00:57:36.706Z,0.00
2023-11-15T00:58:36.720Z,0.00
2023-11-15T00:59:36.747Z,0.00
2023-11-15T01:00:36.750Z,0.00
2023-11-15T01:01:36.759Z,0.00
2023-11-15T01:02:37.009Z,0.00
2023-11-15T01:03:36.901Z,0.00
2023-11-15T01:04:36.800Z,0.00
2023-11-15T01:05:36.857Z,0.00
2023-11-15T01:06:36.833Z,0.00
2023-11-15T01:07:36.844Z,0.00
2023-11-15T01:08:36.892Z,0.00
2023-11-15T01:09:36.875Z,0.00
2023-11-15T01:10:36.901Z,0.00
2023-11-15T01:11:36.943Z,1.57
2023-11-15T01:12:36.915Z,0.00
2023-11-15T01:13:36.932Z,0.00
2023-11-15T01:14:36.962Z,0.00
2023-11-15T01:15:36.960Z,0.00
2023-11-15T01:16:36.994Z,0.00
2023-11-15T01:17:37.076Z,0.00
2023-11-15T01:18:37.011Z,0.00
2023-11-15T01:19:37.021Z,0.00
2023-11-15T01:20:37.057Z,1.57
2023-11-15T01:21:37.048Z,0.00
2023-11-15T01:22:37.079Z,0.00
2023-11-15T01:23:37.097Z,0.00
2023-11-15T01:24:37.091Z,0.00
2023-11-15T01:25:37.115Z,0.00
2023-11-15T01:26:37.161Z,0.00
2023-11-15T01:27:37.134Z,0.00
2023-11-15T01:28:37.155Z,0.00
2023-11-15T01:29:37.199Z,1.57
2023-11-15T01:30:37.176Z,0.00
2023-11-15T01:31:37.199Z,0.00
2023-11-15T01:32:37.434Z,0.00
2023-11-15T01:33:37.291Z,0.00
2023-11-15T01:34:37.247Z,0.00
2023-11-15T01:35:37.367Z,0.00
2023-11-15T01:36:37.264Z,0.00
2023-11-15T01:37:37.315Z,99.99
2023-11-15T01:38:37.487Z,1.57
2023-11-15T01:39:37.320Z,0.00
2023-11-15T01:40:37.319Z,0.00
2023-11-15T01:41:37.375Z,0.00
2023-11-15T01:42:37.375Z,0.00
2023-11-15T01:43:37.362Z,0.00
2023-11-15T01:44:37.434Z,99.99
2023-11-15T01:45:37.402Z,0.00
2023-11-15T01:46:37.477Z,3.12
2023-11-15T01:47:37.475Z,0.00
2023-11-15T01:48:37.439Z,0.00
2023-11-15T01:49:37.466Z,0.00
2023-11-15T01:50:37.489Z,1.57
2023-11-15T01:51:37.488Z,0.00
2023-11-15T01:52:37.503Z,0.00
2023-11-15T01:53:37.517Z,0.00
2023-11-15T01:54:37.524Z,1.57
2023-11-15T01:55:37.539Z,0.00
2023-11-15T01:56:37.575Z,0.00
2023-11-15T01:57:37.569Z,0.00
2023-11-15T01:58:37.583Z,0.00
2023-11-15T01:59:37.614Z,0.00
2023-11-15T02:00:37.621Z,0.00
2023-11-15T02:01:37.640Z,1.57
2023-11-15T02:02:37.744Z,0.00
2023-11-15T02:03:37.747Z,0.00
2023-11-15T02:04:37.667Z,0.00
2023-11-15T02:05:37.718Z,0.00
2023-11-15T02:06:37.703Z,99.99
2023-11-15T02:07:37.712Z,0.00
2023-11-15T02:08:37.793Z,0.00
2023-11-15T02:09:37.759Z,0.00
2023-11-15T02:10:37.759Z,0.19
2023-11-15T02:11:37.820Z,1.57
2023-11-15T02:12:37.788Z,0.00
2023-11-15T02:13:37.803Z,0.39
2023-11-15T02:14:37.872Z,0.00
2023-11-15T02:15:37.833Z,0.00
2023-11-15T02:16:37.903Z,0.00
2023-11-15T02:17:37.924Z,0.00
2023-11-15T02:18:37.940Z,0.00
2023-11-15T02:19:37.887Z,0.01
2023-11-15T02:20:37.927Z,0.00
2023-11-15T02:21:37.913Z,0.00
2023-11-15T02:22:37.934Z,0.00
2023-11-15T02:23:37.975Z,0.00
2023-11-15T02:24:37.957Z,0.00
2023-11-15T02:25:37.972Z,0.00
2023-11-15T02:26:38.025Z,0.00
2023-11-15T02:27:38.004Z,0.00
2023-11-15T02:28:38.020Z,1.57
2023-11-15T02:29:38.059Z,0.00
2023-11-15T02:30:38.076Z,0.00
2023-11-15T02:31:38.064Z,0.00
2023-11-15T02:32:38.164Z,0.00
2023-11-15T02:33:38.135Z,0.00
2023-11-15T02:34:38.104Z,0.00
2023-11-15T02:35:38.150Z,0.00
2023-11-15T02:36:38.143Z,0.00
2023-11-15T02:37:38.154Z,0.00
2023-11-15T02:38:38.168Z,100.00
2023-11-15T02:39:38.175Z,1.57
2023-11-15T02:40:39.769Z,0.00
2023-11-15T02:41:38.259Z,0.00
2023-11-15T02:42:38.221Z,0.00
2023-11-15T02:43:38.270Z,0.00
2023-11-15T02:44:38.285Z,0.00
2023-11-15T02:45:38.275Z,0.00
2023-11-15T02:46:38.299Z,0.00
2023-11-15T02:47:38.390Z,0.00
2023-11-15T02:48:38.482Z,0.00
2023-11-15T02:49:38.330Z,0.00
2023-11-15T02:50:38.393Z,0.02
2023-11-15T02:51:38.356Z,0.00
2023-11-15T02:52:38.371Z,0.00
2023-11-15T02:53:38.409Z,0.00
2023-11-15T02:54:38.396Z,0.00
2023-11-15T02:55:38.422Z,0.00
2023-11-15T02:56:38.439Z,0.00
2023-11-15T02:57:38.441Z,0.00
2023-11-15T02:58:38.457Z,3.12
2023-11-15T02:59:38.545Z,0.00
2023-11-15T03:00:38.512Z,1.57
2023-11-15T03:01:38.523Z,0.00
2023-11-15T03:02:38.559Z,0.00
2023-11-15T03:03:38.625Z,0.00
2023-11-15T03:04:38.554Z,0.00
2023-11-15T03:05:38.678Z,0.00
2023-11-15T03:06:38.575Z,1.57
2023-11-15T03:07:38.582Z,0.00
2023-11-15T03:08:38.614Z,0.00
2023-11-15T03:09:38.623Z,0.00
2023-11-15T03:10:38.730Z,0.00
2023-11-15T03:11:38.673Z,0.00
2023-11-15T03:12:38.669Z,0.00
2023-11-15T03:13:38.671Z,0.00
2023-11-15T03:14:38.720Z,0.00
2023-11-15T03:15:38.707Z,0.00
2023-11-15T03:16:38.747Z,0.00
2023-11-15T03:17:38.787Z,0.00
2023-11-15T03:18:38.847Z,0.00
2023-11-15T03:19:38.757Z,0.00
2023-11-15T03:20:38.800Z,1.57
2023-11-15T03:21:38.796Z,0.00
2023-11-15T03:22:38.810Z,0.00
2023-11-15T03:23:38.821Z,0.00
2023-11-15T03:24:38.847Z,0.00
2023-11-15T03:25:38.878Z,0.00
2023-11-15T03:26:38.920Z,0.00
2023-11-15T03:27:38.874Z,0.00
2023-11-15T03:28:38.888Z,0.00
2023-11-15T03:29:39.012Z,0.00
2023-11-15T03:30:38.921Z,0.00
2023-11-15T03:31:38.931Z,0.00
2023-11-15T03:32:39.104Z,0.00
2023-11-15T03:33:39.063Z,0.00
2023-11-15T03:34:38.973Z,0.00
2023-11-15T03:35:39.015Z,0.00
2023-11-15T03:36:39.004Z,0.00
2023-11-15T03:37:39.019Z,100.00
2023-11-15T03:38:39.067Z,0.00
2023-11-15T03:39:39.086Z,0.00
2023-11-15T03:40:39.069Z,0.00
2023-11-15T03:41:39.130Z,0.00
2023-11-15T03:42:39.090Z,0.00
2023-11-15T03:43:39.101Z,0.00
2023-11-15T03:44:39.156Z,0.00
2023-11-15T03:45:39.141Z,1.57
2023-11-15T03:46:39.184Z,1.57
2023-11-15T03:47:39.227Z,0.00
2023-11-15T03:48:39.206Z,0.00
2023-11-15T03:49:39.204Z,0.00
2023-11-15T03:50:39.247Z,0.00
2023-11-15T03:51:39.227Z,0.00
2023-11-15T03:52:39.230Z,1.57
2023-11-15T03:53:39.294Z,0.00
2023-11-15T03:54:39.258Z,0.00
2023-11-15T03:55:39.294Z,0.00
2023-11-15T03:56:39.304Z,0.00
2023-11-15T03:57:39.302Z,0.00
2023-11-15T03:58:39.320Z,0.00
2023-11-15T03:59:39.462Z,0.00
2023-11-15T04:00:39.345Z,0.00
2023-11-15T04:01:48.671Z,0.00
2023-11-15T04:02:39.501Z,0.00
2023-11-15T04:03:39.648Z,0.00
2023-11-15T04:04:39.605Z,0.00
2023-11-15T04:05:39.540Z,0.00
2023-11-15T04:06:39.448Z,0.00
2023-11-15T04:07:39.445Z,0.00
2023-11-15T04:08:39.505Z,0.00
2023-11-15T04:09:39.476Z,0.00
2023-11-15T04:10:39.515Z,0.00
2023-11-15T04:11:39.505Z,0.00
2023-11-15T04:12:39.526Z,1.57
2023-11-15T04:13:39.534Z,25.00
2023-11-15T04:14:39.571Z,0.00
2023-11-15T04:15:39.585Z,1.57
2023-11-15T04:16:39.580Z,0.00
2023-11-15T04:17:39.669Z,0.00
2023-11-15T04:18:39.701Z,0.00
2023-11-15T04:19:39.650Z,1.57
2023-11-15T04:20:39.648Z,0.00
2023-11-15T04:21:39.639Z,0.39
2023-11-15T04:22:39.654Z,1.57
2023-11-15T04:23:39.686Z,0.00
2023-11-15T04:24:39.678Z,0.00
2023-11-15T04:25:39.696Z,0.00
2023-11-15T04:26:39.780Z,0.39
2023-11-15T04:27:39.733Z,0.00
2023-11-15T04:28:39.735Z,0.00
2023-11-15T04:29:39.776Z,0.00
2023-11-15T04:30:39.768Z,0.00
2023-11-15T04:31:39.819Z,0.00
2023-11-15T04:32:39.871Z,1.57
2023-11-15T04:33:39.837Z,0.00
2023-11-15T04:34:39.832Z,1.57
2023-11-15T04:35:39.872Z,0.00
2023-11-15T04:36:39.850Z,0.00
2023-11-15T04:37:39.869Z,0.00
2023-11-15T04:38:40.069Z,0.00
2023-11-15T04:39:39.894Z,0.00
2023-11-15T04:40:39.908Z,0.00
2023-11-15T04:41:39.975Z,0.00
2023-11-15T04:42:39.972Z,0.00
2023-11-15T04:43:39.949Z,0.00
2023-11-15T04:44:39.975Z,0.00
2023-11-15T04:45:40.037Z,0.00
2023-11-15T04:46:39.989Z,0.00
2023-11-15T04:47:40.090Z,0.00
2023-11-15T04:48:40.204Z,0.78
2023-11-15T04:49:40.031Z,0.00
2023-11-15T04:50:40.091Z,0.00
2023-11-15T04:51:40.055Z,0.00
2023-11-15T04:52:40.087Z,0.00
2023-11-15T04:53:40.099Z,0.00
2023-11-15T04:54:40.096Z,0.00
2023-11-15T04:55:40.104Z,0.00
2023-11-15T04:56:40.141Z,0.00
2023-11-15T04:57:40.134Z,0.00
2023-11-15T04:58:40.150Z,0.00
2023-11-15T04:59:40.174Z,0.00
2023-11-15T05:00:40.174Z,0.00
2023-11-15T05:01:40.234Z,0.00
2023-11-15T05:02:40.345Z,0.00
2023-11-15T05:03:40.335Z,0.00
2023-11-15T05:04:40.385Z,0.00
2023-11-15T05:05:40.417Z,0.00
2023-11-15T05:06:40.255Z,0.00
2023-11-15T05:07:40.271Z,0.00
2023-11-15T05:08:40.293Z,0.00
2023-11-15T05:09:40.295Z,0.00
2023-11-15T05:10:40.309Z,0.00
2023-11-15T05:11:40.374Z,0.00
2023-11-15T05:12:40.344Z,99.99
2023-11-15T05:13:40.354Z,99.99
2023-11-15T05:14:40.380Z,0.00
2023-11-15T05:15:40.375Z,0.00
2023-11-15T05:16:40.387Z,0.00
2023-11-15T05:17:40.441Z,0.00
2023-11-15T05:18:40.424Z,0.00
2023-11-15T05:19:40.422Z,99.99
2023-11-15T05:20:40.486Z,0.00
2023-11-15T05:21:40.452Z,0.00
2023-11-15T05:22:40.477Z,99.99
2023-11-15T05:23:41.073Z,0.00
2023-11-15T05:24:42.077Z,99.99
2023-11-15T05:25:40.506Z,99.99
2023-11-15T05:26:40.666Z,99.99
2023-11-15T05:27:40.529Z,0.00
2023-11-15T05:28:40.547Z,0.00
2023-11-15T05:29:40.596Z,99.99
2023-11-15T05:30:40.572Z,0.00
2023-11-15T05:31:40.604Z,99.99
2023-11-15T05:32:40.684Z,0.00
2023-11-15T05:33:40.628Z,99.99
2023-11-15T05:34:40.625Z,99.99
2023-11-15T05:35:40.667Z,0.00
2023-11-15T05:36:40.668Z,99.99
2023-11-15T05:37:40.691Z,99.99
2023-11-15T05:38:40.730Z,1.57
2023-11-15T05:39:40.699Z,99.99
2023-11-15T05:40:40.707Z,0.00
2023-11-15T05:41:40.742Z,99.99
2023-11-15T05:42:40.726Z,0.00
2023-11-15T05:43:40.742Z,99.99
2023-11-15T05:44:40.797Z,99.99
2023-11-15T05:45:40.765Z,99.99
2023-11-15T05:46:40.898Z,99.99
2023-11-15T05:47:40.842Z,0.00
2023-11-15T05:48:40.865Z,99.99
2023-11-15T05:49:40.833Z,99.99
2023-11-15T05:50:40.836Z,0.00
2023-11-15T05:51:40.844Z,99.99
2023-11-15T05:52:40.901Z,99.99
2023-11-15T05:53:40.890Z,1.57
2023-11-15T05:54:40.881Z,99.99
2023-11-15T05:55:40.893Z,99.99
2023-11-15T05:56:40.994Z,99.99
2023-11-15T05:57:40.925Z,99.99
2023-11-15T05:58:40.933Z,99.99
2023-11-15T05:59:40.949Z,0.00
2023-11-15T06:00:40.958Z,99.99
2023-11-15T06:01:41.007Z,99.99
2023-11-15T06:02:41.049Z,99.99
2023-11-15T06:03:41.092Z,99.99
2023-11-15T06:04:41.032Z,0.00
2023-11-15T06:05:41.065Z,99.99
2023-11-15T06:06:41.046Z,0.00
2023-11-15T06:07:41.056Z,99.99
2023-11-15T06:08:41.058Z,99.99
2023-11-15T06:09:41.074Z,99.99
2023-11-15T06:10:41.087Z,0.00
2023-11-15T06:11:41.141Z,99.99
2023-11-15T06:12:41.115Z,99.99
2023-11-15T06:13:41.130Z,99.99
2023-11-15T06:14:41.206Z,99.99
2023-11-15T06:15:41.150Z,0.00
2023-11-15T06:16:41.192Z,99.99
2023-11-15T06:17:41.523Z,99.99
2023-11-15T06:18:41.245Z,0.00
2023-11-15T06:19:42.108Z,99.99
2023-11-15T06:20:41.245Z,0.00
2023-11-15T06:21:41.253Z,99.99
2023-11-15T06:22:41.270Z,99.99
2023-11-15T06:23:41.282Z,99.99
2023-11-15T06:24:41.281Z,0.00
2023-11-15T06:25:44.767Z,99.99
2023-11-15T06:26:41.328Z,99.99
2023-11-15T06:27:41.304Z,99.99
2023-11-15T06:28:41.318Z,99.99
2023-11-15T06:29:41.361Z,0.00
2023-11-15T06:30:41.386Z,0.05
2023-11-15T06:31:41.353Z,99.99
2023-11-15T06:32:41.506Z,0.00
2023-11-15T06:33:41.562Z,99.99
2023-11-15T06:34:41.393Z,0.00
2023-11-15T06:35:41.439Z,99.99
2023-11-15T06:36:44.101Z,0.00
2023-11-15T06:37:41.438Z,99.99
2023-11-15T06:38:41.483Z,99.99
2023-11-15T06:39:41.457Z,0.00
2023-11-15T06:40:41.477Z,99.99
2023-11-15T06:41:41.584Z,0.00
2023-11-15T06:42:41.614Z,99.99
2023-11-15T06:43:41.526Z,99.99
2023-11-15T06:44:41.604Z,99.99
2023-11-15T06:45:41.655Z,99.99
2023-11-15T06:46:41.688Z,99.99
2023-11-15T06:47:41.735Z,1.57
2023-11-15T06:48:41.628Z,99.99
2023-11-15T06:49:41.694Z,99.99
2023-11-15T06:50:41.674Z,0.00
2023-11-15T06:51:41.742Z,0.00
2023-11-15T06:52:41.680Z,99.99
2023-11-15T06:53:41.819Z,99.99
2023-11-15T06:54:41.773Z,99.99
2023-11-15T06:55:41.738Z,0.00
2023-11-15T06:56:41.769Z,99.99
2023-11-15T06:57:41.717Z,0.00
2023-11-15T06:58:41.808Z,99.99
2023-11-15T06:59:41.757Z,99.99
2023-11-15T07:00:41.775Z,99.99
2023-11-15T07:01:41.781Z,99.99
2023-11-15T07:02:41.959Z,99.99
2023-11-15T07:03:42.094Z,99.99
2023-11-15T07:04:41.866Z,0.00
2023-11-15T07:05:41.841Z,99.99
2023-11-15T07:07:41.908Z,99.99
2023-11-15T07:08:41.917Z,99.99
2023-11-15T07:09:41.892Z,99.99
2023-11-15T07:10:41.881Z,99.99
2023-11-15T07:11:41.881Z,99.99
2023-11-15T07:12:41.907Z,99.99
2023-11-15T07:13:41.902Z,99.99
2023-11-15T07:14:41.915Z,99.99
2023-11-15T07:15:41.940Z,0.00
2023-11-15T07:16:41.929Z,1.57
2023-11-15T07:17:42.022Z,99.99
2023-11-15T07:18:42.032Z,0.00
2023-11-15T07:19:41.961Z,99.99
2023-11-15T07:20:42.002Z,99.99
2023-11-15T07:21:42.004Z,99.99
2023-11-15T07:22:42.008Z,99.99
2023-11-15T07:23:42.057Z,99.99
2023-11-15T07:24:42.495Z,99.99
2023-11-15T07:25:42.053Z,0.00
2023-11-15T07:26:42.128Z,99.99
2023-11-15T07:27:42.072Z,99.99
2023-11-15T07:28:42.086Z,99.99
2023-11-15T07:29:42.193Z,99.99
2023-11-15T07:30:42.129Z,99.99
2023-11-15T07:31:42.211Z,99.99
2023-11-15T07:32:42.238Z,99.99
2023-11-15T07:33:42.324Z,99.99
2023-11-15T07:34:42.163Z,99.99
2023-11-15T07:35:42.232Z,99.99
2023-11-15T07:36:42.186Z,99.99
2023-11-15T07:37:42.200Z,99.99
2023-11-15T07:38:42.321Z,99.99
2023-11-15T07:39:42.225Z,0.00
2023-11-15T07:40:42.241Z,99.99
2023-11-15T07:41:42.288Z,0.00
2023-11-15T07:42:42.269Z,99.99
2023-11-15T07:43:42.281Z,99.99
2023-11-15T07:44:42.372Z,0.00
2023-11-15T07:45:42.305Z,0.00
2023-11-15T07:46:42.324Z,99.99
2023-11-15T07:47:45.814Z,1.57
2023-11-15T07:48:42.471Z,0.00
2023-11-15T07:49:42.361Z,99.99
2023-11-15T07:50:42.402Z,0.00
2023-11-15T07:51:42.384Z,99.99
2023-11-15T07:52:42.399Z,99.99
2023-11-15T07:53:42.435Z,99.99
2023-11-15T07:54:42.434Z,0.00
2023-11-15T07:55:42.440Z,99.99
2023-11-15T07:56:42.488Z,0.00
2023-11-15T07:57:42.468Z,0.00
2023-11-15T07:58:42.483Z,99.99
2023-11-15T07:59:42.526Z,0.00
2023-11-15T08:00:42.530Z,0.00
2023-11-15T08:01:45.954Z,0.00
2023-11-15T08:02:42.747Z,99.99
2023-11-15T08:03:42.820Z,99.99
2023-11-15T08:04:42.611Z,1.57
2023-11-15T08:05:42.595Z,99.99
2023-11-15T08:06:42.607Z,99.99
2023-11-15T08:07:42.600Z,99.99
2023-11-15T08:08:42.660Z,99.99
2023-11-15T08:09:42.630Z,1.57
2023-11-15T08:10:42.657Z,99.99
2023-11-15T08:11:42.673Z,99.99
2023-11-15T08:12:42.673Z,1.57
2023-11-15T08:13:42.685Z,99.99
2023-11-15T08:14:42.735Z,99.99
2023-11-15T08:15:42.708Z,99.99
2023-11-15T08:16:42.723Z,99.99
2023-11-15T08:17:42.893Z,99.99
2023-11-15T08:18:42.836Z,99.99
2023-11-15T08:19:42.806Z,99.99
2023-11-15T08:20:42.806Z,99.99
2023-11-15T08:21:42.787Z,0.00
2023-11-15T08:22:42.800Z,99.99
2023-11-15T08:23:42.867Z,99.99
2023-11-15T08:24:42.827Z,99.99
2023-11-15T08:25:42.840Z,0.00
2023-11-15T08:26:42.887Z,99.99
2023-11-15T08:27:42.869Z,99.99
2023-11-15T08:28:42.880Z,99.99
2023-11-15T08:29:42.921Z,99.99
2023-11-15T08:30:42.918Z,1.57
2023-11-15T08:31:42.923Z,99.99
2023-11-15T08:32:43.127Z,99.99
2023-11-15T08:33:43.038Z,99.99
2023-11-15T08:34:42.975Z,99.99
2023-11-15T08:35:43.056Z,99.99
2023-11-15T08:36:42.991Z,0.00
2023-11-15T08:37:43.022Z,99.99
2023-11-15T08:38:43.041Z,99.99
2023-11-15T08:39:43.037Z,99.99
2023-11-15T08:40:43.045Z,0.00
2023-11-15T08:41:43.230Z,99.99
2023-11-15T08:42:43.076Z,99.99
2023-11-15T08:43:43.088Z,99.99
2023-11-15T08:44:43.126Z,99.99
2023-11-15T08:45:43.144Z,99.99
2023-11-15T08:46:43.136Z,99.99
2023-11-15T08:47:43.253Z,0.00
2023-11-15T08:48:43.212Z,99.99
2023-11-15T08:49:43.170Z,99.99
2023-11-15T08:50:43.204Z,99.99
2023-11-15T08:51:43.280Z,0.00
2023-11-15T08:52:43.298Z,99.99
2023-11-15T08:53:43.241Z,99.99
2023-11-15T08:54:43.238Z,99.99
2023-11-15T08:55:43.253Z,0.00
2023-11-15T08:56:43.302Z,99.99
2023-11-15T08:57:43.371Z,99.99
2023-11-15T08:58:43.293Z,99.99
2023-11-15T08:59:43.435Z,99.99
2023-11-15T09:00:43.341Z,99.99
2023-11-15T09:01:43.335Z,99.99
2023-11-15T09:02:43.445Z,99.99
2023-11-15T09:03:43.489Z,99.99
2023-11-15T09:04:43.395Z,99.99
2023-11-15T09:05:43.405Z,99.99
2023-11-15T09:06:43.400Z,99.99
2023-11-15T09:07:43.412Z,99.99
2023-11-15T09:08:43.442Z,99.99
2023-11-15T09:09:43.444Z,99.99
2023-11-15T09:10:43.457Z,99.99
2023-11-15T09:11:43.492Z,99.99
2023-11-15T09:12:43.513Z,99.99
2023-11-15T09:13:43.497Z,99.99
2023-11-15T09:14:43.525Z,99.99
2023-11-15T09:15:43.524Z,99.99
2023-11-15T09:16:43.773Z,99.99
2023-11-15T09:17:43.632Z,99.99
2023-11-15T09:18:43.737Z,99.99
2023-11-15T09:19:43.582Z,99.99
2023-11-15T09:20:43.616Z,99.99
2023-11-15T09:21:44.083Z,99.99
2023-11-15T09:22:43.621Z,99.99
2023-11-15T09:23:43.679Z,99.99
2023-11-15T09:24:43.648Z,99.99
2023-11-15T09:25:43.679Z,99.99
2023-11-15T09:26:43.712Z,99.99
2023-11-15T09:27:43.704Z,99.99
2023-11-15T09:28:43.713Z,99.99
2023-11-15T09:29:43.738Z,99.99
2023-11-15T09:30:43.739Z,99.99
2023-11-15T09:31:43.750Z,99.99
2023-11-15T09:32:43.897Z,99.99
2023-11-15T09:33:43.849Z,99.99
2023-11-15T09:34:43.887Z,99.99
2023-11-15T09:35:52.270Z,99.99
2023-11-15T09:36:43.982Z,99.99
2023-11-15T09:37:43.861Z,99.99
2023-11-15T09:38:43.892Z,99.99
2023-11-15T09:39:43.860Z,99.99
2023-11-15T09:40:43.876Z,99.99
2023-11-15T09:41:43.917Z,99.99
2023-11-15T09:42:43.908Z,99.99
2023-11-15T09:43:43.917Z,99.99
2023-11-15T09:44:43.942Z,99.99
2023-11-15T09:45:43.965Z,99.99
2023-11-15T09:46:43.990Z,99.99
2023-11-15T09:47:45.550Z,99.99
2023-11-15T09:48:50.996Z,99.99
2023-11-15T09:49:44.166Z,99.99
2023-11-15T09:50:44.040Z,99.99
2023-11-15T09:51:44.034Z,99.99
2023-11-15T09:52:44.055Z,99.99
2023-11-15T09:53:44.099Z,99.99
2023-11-15T09:54:46.933Z,99.99
2023-11-15T09:55:44.100Z,99.99
2023-11-15T09:56:44.128Z,99.99
2023-11-15T09:57:44.127Z,99.99
2023-11-15T09:58:44.141Z,99.99
2023-11-15T09:59:52.770Z,99.99
2023-11-15T10:00:44.222Z,99.99
2023-11-15T10:01:44.202Z,99.99
2023-11-15T10:02:44.294Z,99.99
2023-11-15T10:03:44.296Z,99.99
2023-11-15T10:04:44.234Z,99.99
2023-11-15T10:05:44.265Z,99.99
2023-11-15T10:06:44.569Z,99.99
2023-11-15T10:07:44.275Z,99.99
2023-11-15T10:08:44.320Z,99.99
2023-11-15T10:09:44.307Z,99.99
2023-11-15T10:10:44.321Z,99.99
2023-11-15T10:11:44.336Z,0.00
2023-11-15T10:12:44.349Z,99.99
2023-11-15T10:13:44.366Z,0.00
2023-11-15T10:14:44.403Z,99.99
2023-11-15T10:15:44.414Z,99.99
2023-11-15T10:16:44.414Z,99.99
2023-11-15T10:17:44.772Z,0.00
2023-11-15T10:18:44.444Z,99.99
2023-11-15T10:19:44.457Z,99.99
2023-11-15T10:20:44.753Z,99.99
2023-11-15T10:21:44.483Z,99.99
2023-11-15T10:22:44.497Z,99.99
2023-11-15T10:23:44.618Z,99.99
2023-11-15T10:24:44.525Z,99.99
2023-11-15T10:25:44.539Z,99.99
2023-11-15T10:26:44.591Z,99.99
2023-11-15T10:27:44.578Z,99.99
2023-11-15T10:28:44.582Z,99.99
2023-11-15T10:29:44.612Z,99.99
2023-11-15T10:30:44.613Z,99.99
2023-11-15T10:31:44.689Z,99.99
2023-11-15T10:32:44.715Z,1.57
2023-11-15T10:33:44.772Z,99.99
2023-11-15T10:34:44.671Z,99.99
2023-11-15T10:35:44.836Z,99.99
2023-11-15T10:36:45.046Z,99.99
2023-11-15T10:37:44.715Z,99.99
2023-11-15T10:38:44.762Z,99.99
2023-11-15T10:39:44.804Z,1.57
2023-11-15T10:40:44.758Z,99.99
2023-11-15T10:41:44.796Z,0.00
2023-11-15T10:42:44.798Z,99.99
2023-11-15T10:43:44.803Z,99.99
2023-11-15T10:44:44.832Z,99.99
2023-11-15T10:45:44.948Z,99.99
2023-11-15T10:46:44.860Z,99.99
2023-11-15T10:47:44.972Z,0.00
2023-11-15T10:48:44.902Z,99.99
2023-11-15T10:49:44.940Z,99.99
2023-11-15T10:50:44.966Z,99.99
2023-11-15T10:51:44.999Z,99.99
2023-11-15T10:52:44.945Z,99.99
2023-11-15T10:53:45.051Z,99.99
2023-11-15T10:54:44.982Z,99.99
2023-11-15T10:55:44.995Z,99.99
2023-11-15T10:56:45.155Z,99.99
2023-11-15T10:57:45.014Z,99.99
2023-11-15T10:58:45.031Z,99.99
2023-11-15T10:59:45.061Z,99.99
2023-11-15T11:00:46.986Z,99.99
2023-11-15T11:01:45.126Z,99.99
2023-11-15T11:02:45.193Z,99.99
2023-11-15T11:03:45.180Z,99.99
2023-11-15T11:04:45.171Z,99.99
2023-11-15T11:05:45.157Z,99.99
2023-11-15T11:06:45.156Z,0.00
2023-11-15T11:07:45.158Z,99.99
2023-11-15T11:08:45.199Z,99.99
2023-11-15T11:09:45.189Z,99.99
2023-11-15T11:10:45.206Z,99.99
2023-11-15T11:11:45.234Z,99.99
2023-11-15T11:12:45.232Z,99.99
2023-11-15T11:13:45.245Z,99.99
2023-11-15T11:14:45.280Z,99.99
2023-11-15T11:15:45.273Z,99.99
2023-11-15T11:16:45.424Z,99.99
2023-11-15T11:17:45.370Z,99.99
2023-11-15T11:18:45.411Z,99.99
2023-11-15T11:19:45.334Z,99.99
2023-11-15T11:20:45.354Z,99.99
2023-11-15T11:21:45.363Z,99.99
2023-11-15T11:22:45.378Z,99.99
2023-11-15T11:23:45.441Z,99.99
2023-11-15T11:24:45.401Z,99.99
2023-11-15T11:25:45.416Z,99.99
2023-11-15T11:26:45.461Z,99.99
2023-11-15T11:27:45.446Z,99.99
2023-11-15T11:28:45.457Z,99.99
2023-11-15T11:29:45.492Z,99.99
2023-11-15T11:30:45.497Z,0.00
2023-11-15T11:31:45.537Z,99.99
2023-11-15T11:32:45.572Z,0.00
2023-11-15T11:33:45.628Z,99.99
2023-11-15T11:34:45.545Z,99.99
2023-11-15T11:35:45.598Z,0.00
2023-11-15T11:36:45.575Z,99.99
2023-11-15T11:37:45.720Z,1.57
2023-11-15T11:38:45.674Z,99.99
2023-11-15T11:39:45.631Z,99.99
2023-11-15T11:40:45.634Z,99.99
2023-11-15T11:41:45.668Z,99.99
2023-11-15T11:42:45.733Z,99.99
2023-11-15T11:43:45.681Z,0.00
2023-11-15T11:44:45.695Z,99.99
2023-11-15T11:45:45.762Z,99.99
2023-11-15T11:46:45.720Z,99.99
2023-11-15T11:47:45.789Z,99.99
2023-11-15T11:48:45.922Z,99.99
2023-11-15T11:49:45.775Z,0.00
2023-11-15T11:50:45.787Z,99.99
2023-11-15T11:51:45.794Z,99.99
2023-11-15T11:52:45.815Z,99.99
2023-11-15T11:53:45.882Z,99.99
2023-11-15T11:54:45.839Z,0.19
2023-11-15T11:55:45.851Z,99.99
2023-11-15T11:56:45.889Z,99.99
2023-11-15T11:57:45.880Z,99.99
2023-11-15T11:58:46.031Z,99.99
2023-11-15T11:59:45.935Z,99.99
2023-11-15T12:00:45.921Z,0.00
2023-11-15T12:01:46.002Z,99.99
2023-11-15T12:02:46.004Z,99.99
2023-11-15T12:03:46.027Z,99.99
2023-11-15T12:04:46.092Z,99.99
2023-11-15T12:05:46.021Z,99.99
2023-11-15T12:06:46.017Z,99.99
2023-11-15T12:07:46.023Z,99.99
2023-11-15T12:08:46.062Z,99.99
2023-11-15T12:09:46.056Z,99.99
2023-11-15T12:10:46.634Z,99.99
2023-11-15T12:11:46.125Z,99.99
2023-11-15T12:12:46.100Z,99.99
2023-11-15T12:13:46.120Z,99.99
2023-11-15T12:14:46.199Z,99.99
2023-11-15T12:15:46.146Z,99.99
2023-11-15T12:16:47.632Z,99.99
2023-11-15T12:17:46.231Z,99.99
2023-11-15T12:18:46.192Z,99.99
2023-11-15T12:19:46.208Z,99.99
2023-11-15T12:20:46.240Z,99.99
2023-11-15T12:21:46.239Z,99.99
2023-11-15T12:22:48.247Z,99.99
2023-11-15T12:23:46.293Z,99.99
2023-11-15T12:24:46.280Z,99.99
2023-11-15T12:25:46.302Z,99.99
2023-11-15T12:26:46.420Z,99.99
2023-11-15T12:27:46.324Z,99.99
2023-11-15T12:28:47.448Z,99.99
2023-11-15T12:29:46.377Z,99.99
2023-11-15T12:30:46.381Z,99.99
2023-11-15T12:31:46.389Z,99.99
2023-11-15T12:32:46.458Z,99.99
2023-11-15T12:33:46.416Z,99.99
2023-11-15T12:34:46.430Z,99.99
2023-11-15T12:35:46.471Z,99.99
2023-11-15T12:36:46.457Z,99.99
2023-11-15T12:37:46.474Z,99.99
2023-11-15T12:38:46.503Z,99.99
2023-11-15T12:39:46.503Z,99.99
2023-11-15T12:40:46.517Z,99.99
2023-11-15T12:41:46.543Z,99.99
2023-11-15T12:42:46.549Z,99.99
2023-11-15T12:43:46.574Z,99.99
2023-11-15T12:44:46.687Z,99.99
2023-11-15T12:45:46.596Z,99.99
2023-11-15T12:46:46.648Z,99.99
2023-11-15T12:47:46.681Z,99.99
2023-11-15T12:48:46.642Z,99.99
2023-11-15T12:49:46.651Z,99.99
2023-11-15T12:50:46.693Z,99.99
2023-11-15T12:51:46.682Z,99.99
2023-11-15T12:52:48.241Z,99.99
2023-11-15T12:53:46.807Z,99.99
2023-11-15T12:54:46.732Z,99.99
2023-11-15T12:55:46.757Z,99.99
2023-11-15T12:56:46.789Z,99.99
2023-11-15T12:57:46.796Z,99.99
2023-11-15T12:58:46.795Z,99.99
2023-11-15T12:59:46.812Z,99.99
2023-11-15T13:00:46.852Z,99.99
2023-11-15T13:01:47.316Z,99.99
2023-11-15T13:02:46.975Z,99.99
2023-11-15T13:03:46.994Z,99.99
2023-11-15T13:04:46.884Z,99.99
2023-11-15T13:05:46.931Z,99.99
2023-11-15T13:06:46.927Z,99.99